Time;durP1;ratioP1;P1;durP2;ratioP2;P2;SDS_P1;SDS_P2;PMS_P1;PMS_P2;Temp;Humidity;BMP_temperature;BMP_pressure;BME280_temperature;BME280_humidity;BME280_pressure;Samples;Min_cycle;Max_cycle;Signal;HPM_P1;HPM_P2
2024/04/11 00:01:25;;;;;;;13.47;2.87;;;;;;;11.19;100.00;102700.69;5343143;26;20290;-65
2024/04/11 00:03:50;;;;;;;10.60;2.70;;;;;;;11.15;100.00;102696.66;5342268;26;21243;-66
2024/04/11 00:06:15;;;;;;;9.67;2.73;;;;;;;11.17;100.00;102691.97;5337960;26;20246;-65
2024/04/11 00:08:41;;;;;;;9.90;2.23;;;;;;;10.98;100.00;102657.25;5342041;26;20556;-65
2024/04/11 00:11:06;;;;;;;7.17;1.90;;;;;;;11.21;100.00;102695.19;5341345;26;20230;-65
2024/04/11 00:13:32;;;;;;;8.93;2.40;;;;;;;10.92;100.00;102625.66;5337919;26;20288;-65
2024/04/11 00:15:57;;;;;;;8.40;2.67;;;;;;;11.19;100.00;102660.41;5343609;26;20696;-65
2024/04/11 00:18:24;;;;;;;11.90;2.63;;;;;;;11.19;100.00;102675.69;5320954;26;20318;-65
2024/04/11 00:20:55;;;;;;;11.73;3.50;;;;;;;11.08;100.00;102637.38;5338270;26;20242;-65
2024/04/11 00:23:22;;;;;;;7.93;2.30;;;;;;;11.18;100.00;102658.72;5338701;26;20509;-66
2024/04/11 00:25:56;;;;;;;9.13;2.80;;;;;;;11.26;100.00;102645.34;5325658;26;20540;-65
2024/04/11 00:28:22;;;;;;;6.80;1.80;;;;;;;11.27;100.00;102646.19;5333480;26;20477;-65
2024/04/11 00:30:48;;;;;;;8.27;2.10;;;;;;;11.19;100.00;102638.91;5340420;26;20568;-65
2024/04/11 00:33:13;;;;;;;9.83;2.20;;;;;;;10.71;100.00;102558.94;5340371;26;20470;-66
2024/04/11 00:35:40;;;;;;;8.20;2.10;;;;;;;11.34;100.00;102658.00;5340931;26;20791;-67
2024/04/11 00:38:10;;;;;;;8.57;2.17;;;;;;;11.11;100.00;102612.03;5339794;26;20302;-65
2024/04/11 00:40:36;;;;;;;9.70;2.40;;;;;;;11.28;100.00;102631.75;5339080;26;20488;-65
2024/04/11 00:43:01;;;;;;;6.67;1.90;;;;;;;11.05;100.00;102600.09;5341946;26;20477;-66
2024/04/11 00:45:27;;;;;;;9.67;2.33;;;;;;;11.22;100.00;102617.13;5312696;26;21043;-65
2024/04/11 00:47:53;;;;;;;8.97;1.90;;;;;;;11.39;100.00;102625.25;5341636;26;20783;-67
2024/04/11 00:50:21;;;;;;;15.43;2.30;;;;;;;11.52;100.00;102650.69;5339278;26;20472;-66
2024/04/11 00:52:48;;;;;;;10.47;2.10;;;;;;;11.55;100.00;102646.84;5312949;26;20296;-66
2024/04/11 00:55:15;;;;;;;18.10;2.43;;;;;;;11.39;100.00;102612.66;5342420;26;20490;-65
2024/04/11 00:57:40;;;;;;;13.00;2.90;;;;;;;11.42;100.00;102606.13;5334502;26;20547;-65
2024/04/11 01:00:06;;;;;;;14.13;2.63;;;;;;;11.64;100.00;102653.09;5342727;26;20472;-65
2024/04/11 01:02:33;;;;;;;14.93;2.03;;;;;;;11.52;100.00;102605.00;5339613;26;20243;-65
2024/04/11 01:05:00;;;;;;;7.80;1.70;;;;;;;11.63;100.00;102613.78;5343462;26;20478;-66
2024/04/11 01:07:26;;;;;;;11.43;2.50;;;;;;;11.69;100.00;102610.47;5338465;26;20528;-65
2024/04/11 01:09:52;;;;;;;9.37;2.10;;;;;;;11.53;100.00;102590.56;5338181;26;20566;-65
2024/04/11 01:12:18;;;;;;;10.13;2.27;;;;;;;11.18;100.00;102502.13;5332008;26;20244;-65
2024/04/11 01:14:45;;;;;;;11.73;2.30;;;;;;;11.74;100.00;102597.34;5344539;26;20521;-65
2024/04/11 01:17:13;;;;;;;13.00;2.30;;;;;;;11.64;100.00;102580.53;5309514;26;20343;-65
2024/04/11 01:19:44;;;;;;;15.17;2.60;;;;;;;11.67;100.00;102577.53;5339231;26;21025;-65
2024/04/11 01:22:10;;;;;;;11.40;2.50;;;;;;;11.71;100.00;102562.72;5334656;26;20903;-65
2024/04/11 01:24:42;;;;;;;7.47;1.53;;;;;;;11.74;100.00;102565.09;5340521;26;20555;-66
2024/04/11 01:27:08;;;;;;;7.83;2.00;;;;;;;11.72;100.00;102565.28;5306972;26;20474;-65
2024/04/11 01:29:37;;;;;;;8.70;1.83;;;;;;;11.81;100.00;102562.59;5337199;26;20532;-65
2024/04/11 01:32:03;;;;;;;9.20;1.80;;;;;;;11.74;100.00;102575.84;5337850;26;20478;-65
2024/04/11 01:34:30;;;;;;;14.63;1.93;;;;;;;11.62;100.00;102550.28;5332316;26;21000;-66
2024/04/11 01:36:59;;;;;;;8.70;1.93;;;;;;;11.75;100.00;102586.44;5338777;26;20270;-65
2024/04/11 01:39:24;;;;;;;8.43;2.13;;;;;;;11.52;100.00;102542.38;5334215;26;20502;-66
2024/04/11 01:41:50;;;;;;;9.80;1.43;;;;;;;11.52;100.00;102553.94;5339785;26;20472;-66
2024/04/11 01:44:16;;;;;;;11.70;2.80;;;;;;;11.58;100.00;102568.59;5305571;26;20295;-66
2024/04/11 01:46:42;;;;;;;12.93;2.10;;;;;;;11.68;100.00;102553.16;5336153;26;20379;-67
2024/04/11 01:49:08;;;;;;;9.07;1.50;;;;;;;11.66;100.00;102547.13;5339114;26;20241;-66
2024/04/11 01:51:34;;;;;;;8.13;2.03;;;;;;;11.45;100.00;102533.25;5342437;26;20516;-66
2024/04/11 01:54:03;;;;;;;7.97;1.60;;;;;;;11.65;100.00;102544.56;5313053;26;20979;-65
2024/04/11 01:56:34;;;;;;;11.03;1.80;;;;;;;10.01;100.00;102302.31;5358813;21;22756;-80
2024/04/11 01:59:04;;;;;;;16.60;2.33;;;;;;;11.16;100.00;102463.84;5359306;26;20484;-80
2024/04/11 02:01:34;;;;;;;10.37;1.97;;;;;;;11.54;100.00;102510.78;5403363;21;20585;-70
2024/04/11 02:04:01;;;;;;;11.73;1.93;;;;;;;11.86;100.00;102542.31;5374569;26;20476;-69
2024/04/11 02:06:26;;;;;;;10.60;1.73;;;;;;;11.75;100.00;102545.28;5375340;26;20527;-69
2024/04/11 02:08:53;;;;;;;10.27;1.67;;;;;;;11.81;100.00;102527.66;5388249;26;20471;-69
2024/04/11 02:11:19;;;;;;;8.80;1.60;;;;;;;11.29;100.00;102446.25;5391100;26;20349;-70
2024/04/11 02:13:44;;;;;;;8.10;2.03;;;;;;;11.82;100.00;102548.16;5389605;26;20590;-70
2024/04/11 02:16:09;;;;;;;8.13;2.30;;;;;;;11.68;100.00;102498.56;5391071;26;20939;-68
2024/04/11 02:18:35;;;;;;;5.90;1.33;;;;;;;11.38;100.00;102446.28;5384186;26;21157;-69
2024/04/11 02:21:00;;;;;;;5.70;1.50;;;;;;;11.85;100.00;102507.47;5390926;26;20292;-70
2024/04/11 02:23:28;;;;;;;8.97;1.83;;;;;;;11.64;100.00;102479.22;5388073;26;20790;-70
2024/04/11 02:25:54;;;;;;;12.73;2.43;;;;;;;11.66;100.00;102482.59;5381645;26;20763;-69
2024/04/11 02:28:19;;;;;;;9.30;1.57;;;;;;;11.74;100.00;102500.56;5391736;26;20527;-69
2024/04/11 02:30:45;;;;;;;10.03;1.47;;;;;;;11.93;100.00;102529.03;5392679;26;20244;-70
2024/04/11 02:33:10;;;;;;;9.03;1.40;;;;;;;11.93;100.00;102516.44;5384879;26;20287;-69
2024/04/11 02:35:38;;;;;;;7.40;1.80;;;;;;;11.89;100.00;102528.53;5388536;26;20287;-68
2024/04/11 02:38:03;;;;;;;6.20;1.50;;;;;;;11.75;100.00;102488.84;5379409;26;20299;-69
2024/04/11 02:40:29;;;;;;;7.00;1.67;;;;;;;11.38;100.00;102427.47;5383735;26;20486;-70
2024/04/11 02:42:55;;;;;;;9.97;1.73;;;;;;;11.92;100.00;102511.25;5395406;26;20241;-69
2024/04/11 02:45:21;;;;;;;7.43;1.90;;;;;;;11.94;100.00;102522.66;5397363;26;20245;-69
2024/04/11 02:47:47;;;;;;;5.80;1.37;;;;;;;11.57;100.00;102462.09;5379223;26;20547;-69
2024/04/11 02:50:15;;;;;;;6.70;1.30;;;;;;;11.63;100.00;102463.25;5393570;26;20542;-69
2024/04/11 02:52:44;;;;;;;8.63;1.63;;;;;;;11.81;100.00;102492.69;5419544;26;20732;-68
2024/04/11 02:55:11;;;;;;;7.40;1.60;;;;;;;11.77;100.00;102497.56;5405143;26;20455;-69
2024/04/11 02:57:37;;;;;;;9.40;1.70;;;;;;;11.81;100.00;102503.47;5381437;26;20834;-70
2024/04/11 03:00:04;;;;;;;8.50;1.77;;;;;;;11.59;100.00;102464.59;5393051;26;20473;-69
2024/04/11 03:02:33;;;;;;;8.60;1.63;;;;;;;11.50;100.00;102463.75;5389414;26;20877;-69
2024/04/11 03:04:58;;;;;;;7.87;1.73;;;;;;;11.78;100.00;102512.69;5395379;26;20589;-69
2024/04/11 03:07:24;;;;;;;13.33;2.03;;;;;;;11.77;100.00;102498.41;5396765;26;20471;-70
2024/04/11 03:09:53;;;;;;;11.17;1.67;;;;;;;11.41;100.00;102449.47;5397645;26;20328;-70
2024/04/11 03:12:19;;;;;;;9.03;2.03;;;;;;;11.09;100.00;102401.88;5394277;26;20281;-71
2024/04/11 03:14:47;;;;;;;7.73;1.60;;;;;;;11.39;100.00;102466.75;5396400;26;20471;-70
2024/04/11 03:17:13;;;;;;;8.13;1.80;;;;;;;11.68;100.00;102514.69;5381753;26;20245;-69
2024/04/11 03:19:39;;;;;;;10.27;2.00;;;;;;;11.70;100.00;102510.81;5393930;26;20467;-69
2024/04/11 03:22:05;;;;;;;10.23;1.77;;;;;;;11.68;100.00;102520.88;5399549;26;20312;-70
2024/04/11 03:24:31;;;;;;;10.03;1.60;;;;;;;11.47;100.00;102485.59;5401298;26;21004;-69
2024/04/11 03:26:57;;;;;;;10.47;1.90;;;;;;;11.63;100.00;102508.94;5396117;26;20517;-70
2024/04/11 03:29:22;;;;;;;8.27;2.17;;;;;;;11.40;100.00;102473.78;5400210;26;20249;-69
2024/04/11 03:31:50;;;;;;;10.27;1.83;;;;;;;11.60;100.00;102496.72;5398126;26;20382;-70
2024/04/11 03:34:17;;;;;;;9.70;1.83;;;;;;;11.52;100.00;102476.03;5390087;26;20331;-70
2024/04/11 03:36:44;;;;;;;7.30;1.87;;;;;;;11.27;100.00;102445.56;5385340;26;21073;-70
2024/04/11 03:39:12;;;;;;;11.67;2.30;;;;;;;11.01;100.00;102424.16;5390085;26;20574;-70
2024/04/11 03:41:44;;;;;;;11.53;1.53;;;;;;;11.18;100.00;102435.81;5388918;26;20532;-69
2024/04/11 03:44:10;;;;;;;7.50;1.87;;;;;;;11.65;100.00;102496.19;5396427;26;20549;-70
2024/04/11 03:46:36;;;;;;;8.77;1.40;;;;;;;11.44;100.00;102453.66;5395043;26;20487;-69
2024/04/11 03:49:02;;;;;;;13.77;2.47;;;;;;;11.56;100.00;102505.25;5386870;26;20526;-69
2024/04/11 03:51:29;;;;;;;7.10;1.40;;;;;;;11.46;100.00;102465.94;5382428;26;20245;-69
2024/04/11 03:53:58;;;;;;;7.10;1.73;;;;;;;11.54;100.00;102482.09;5394761;26;20242;-69
2024/04/11 03:56:26;;;;;;;8.40;2.17;;;;;;;11.57;100.00;102497.03;5391992;26;20834;-69
2024/04/11 03:58:56;;;;;;;10.13;1.80;;;;;;;10.90;100.00;102386.88;5396982;26;21358;-70
2024/04/11 04:01:22;;;;;;;8.03;1.87;;;;;;;11.02;100.00;102393.66;5385973;26;20557;-70
2024/04/11 04:03:49;;;;;;;10.27;2.03;;;;;;;11.58;100.00;102479.91;5426404;26;20590;-70
2024/04/11 04:06:16;;;;;;;9.07;1.67;;;;;;;11.25;100.00;102417.19;5398864;26;20530;-70
2024/04/11 04:08:46;;;;;;;5.80;1.63;;;;;;;11.63;100.00;102474.88;5395475;26;20620;-70
2024/04/11 04:11:13;;;;;;;8.20;1.87;;;;;;;11.50;100.00;102467.28;5395310;26;20467;-69
2024/04/11 04:13:39;;;;;;;8.90;1.73;;;;;;;11.57;100.00;102462.09;5395322;26;20475;-69
2024/04/11 04:16:10;;;;;;;8.20;2.47;;;;;;;11.18;100.00;102408.94;5394998;26;21000;-70
2024/04/11 04:18:37;;;;;;;10.03;2.73;;;;;;;11.65;100.00;102474.69;5381000;26;21442;-69
2024/04/11 04:21:04;;;;;;;9.47;1.87;;;;;;;11.64;100.00;102483.78;5399128;26;20478;-69
2024/04/11 04:23:30;;;;;;;12.67;2.00;;;;;;;11.64;100.00;102467.66;5395254;26;20486;-69
2024/04/11 04:25:59;;;;;;;7.87;1.80;;;;;;;11.61;100.00;102470.66;5392571;26;20866;-70
2024/04/11 04:28:32;;;;;;;8.37;1.70;;;;;;;11.54;100.00;102465.09;5398208;26;20757;-70
2024/04/11 04:31:16;;;;;;;7.80;1.93;;;;;;;11.38;100.00;102470.44;5381793;26;21202;-70
2024/04/11 04:33:48;;;;;;;8.73;1.70;;;;;;;11.52;100.00;102459.91;5389493;26;20513;-69
2024/04/11 04:36:20;;;;;;;11.97;2.20;;;;;;;11.48;100.00;102465.75;5395032;26;20564;-69
2024/04/11 04:39:05;;;;;;;12.30;2.33;;;;;;;11.25;100.00;102393.00;5425001;26;20562;-70
2024/04/11 04:41:30;;;;;;;6.60;1.70;;;;;;;11.34;100.00;102423.41;5395751;26;20538;-69
2024/04/11 04:43:57;;;;;;;7.43;1.80;;;;;;;11.47;100.00;102438.06;5398702;26;20873;-70
2024/04/11 04:46:28;;;;;;;7.43;2.20;;;;;;;11.53;100.00;102447.31;5397928;26;20645;-69
2024/04/11 04:48:55;;;;;;;10.10;1.57;;;;;;;11.47;100.00;102440.75;5384419;26;20529;-70
2024/04/11 04:51:21;;;;;;;8.80;1.60;;;;;;;11.54;100.00;102449.84;5395773;26;21136;-69
2024/04/11 04:53:51;;;;;;;8.80;1.90;;;;;;;10.90;100.00;102349.31;5390399;26;20479;-69
2024/04/11 04:56:22;;;;;;;7.70;1.40;;;;;;;11.28;100.00;102451.78;5385185;26;20531;-69
2024/04/11 04:58:49;;;;;;;13.07;2.20;;;;;;;11.07;100.00;102450.38;5394319;26;20626;-69
2024/04/11 05:01:15;;;;;;;10.70;2.10;;;;;;;10.75;100.00;102400.09;5389455;26;20487;-69
2024/04/11 05:03:43;;;;;;;13.07;2.00;;;;;;;11.26;100.00;102465.38;5390354;26;21413;-69
2024/04/11 05:06:09;;;;;;;12.10;2.50;;;;;;;10.28;100.00;102327.28;5394606;26;20541;-69
2024/04/11 05:08:35;;;;;;;13.00;2.27;;;;;;;10.62;100.00;102365.66;5398479;26;20479;-70
2024/04/11 05:11:12;;;;;;;9.50;2.30;;;;;;;11.06;100.00;102450.56;5393593;26;20581;-69
2024/04/11 05:13:45;;;;;;;9.47;2.50;;;;;;;8.89;100.00;102099.59;5402417;21;20503;-75
2024/04/11 05:16:18;;;;;;;9.63;2.33;;;;;;;9.03;100.00;102114.25;5365185;26;20556;-75
2024/04/11 05:18:44;;;;;;;10.50;2.23;;;;;;;8.11;100.00;101971.13;5367102;26;20484;-75
2024/04/11 05:21:24;;;;;;;8.90;1.73;;;;;;;10.98;100.00;102491.63;5362837;26;20580;-76
2024/04/11 05:23:50;;;;;;;11.13;2.00;;;;;;;9.88;100.00;102300.06;5364564;26;20476;-76
2024/04/11 05:26:15;;;;;;;14.40;2.43;;;;;;;9.88;100.00;102326.03;5366716;26;20535;-76
2024/04/11 05:28:45;;;;;;;11.37;2.33;;;;;;;9.57;100.00;102328.31;5362532;26;21154;-75
2024/04/11 05:31:16;;;;;;;9.70;2.67;;;;;;;9.02;100.00;102182.97;5367588;26;20328;-76
2024/04/11 05:33:43;;;;;;;9.23;2.43;;;;;;;8.62;100.00;102180.81;5364017;26;20841;-76
2024/04/11 05:36:12;;;;;;;16.63;2.77;;;;;;;10.02;100.00;102405.88;5366843;26;21223;-76
2024/04/11 05:38:44;;;;;;;9.53;2.30;;;;;;;9.91;100.00;102371.28;5362415;26;20536;-76
2024/04/11 05:41:14;;;;;;;13.47;2.30;;;;;;;10.08;100.00;102391.84;5366335;26;20510;-76
2024/04/11 05:43:42;;;;;;;9.80;2.20;;;;;;;9.64;100.00;102356.19;5372199;26;20876;-76
2024/04/11 05:46:13;;;;;;;13.60;2.90;;;;;;;10.99;100.00;102637.44;5366154;26;20476;-76
2024/04/11 05:48:42;;;;;;;16.37;2.37;;;;;;;9.83;100.00;102419.44;5368714;26;20540;-75
2024/04/11 05:51:09;;;;;;;10.27;2.53;;;;;;;10.12;100.00;102494.22;5393500;26;20522;-75
2024/04/11 05:53:36;;;;;;;15.00;3.03;;;;;;;9.60;100.00;102419.91;5365041;26;21748;-76
2024/04/11 05:56:04;;;;;;;13.00;2.47;;;;;;;9.13;100.00;102350.53;5366598;26;21374;-76
2024/04/11 05:58:30;;;;;;;13.30;2.83;;;;;;;9.90;100.00;102458.88;5391619;26;21004;-76
2024/04/11 06:00:56;;;;;;;8.50;2.53;;;;;;;9.41;100.00;102406.69;5371130;26;21280;-75
2024/04/11 06:03:22;;;;;;;10.50;2.40;;;;;;;9.18;100.00;102334.03;5391768;26;20917;-76
2024/04/11 06:05:48;;;;;;;8.07;2.07;;;;;;;10.21;100.00;102525.47;5374008;26;20518;-76
2024/04/11 06:08:14;;;;;;;9.90;2.67;;;;;;;11.04;100.00;102695.06;5358122;26;21000;-76
2024/04/11 06:10:40;;;;;;;10.43;2.37;;;;;;;9.57;100.00;102456.91;5363951;26;20250;-76
2024/04/11 06:13:06;;;;;;;11.80;2.53;;;;;;;9.35;100.00;102424.22;5365012;26;20480;-76
2024/04/11 06:15:31;;;;;;;10.57;2.33;;;;;;;8.18;100.00;102215.41;5392669;26;20284;-76
2024/04/11 06:17:57;;;;;;;12.30;3.03;;;;;;;9.64;100.00;102456.16;5366610;26;20840;-75
2024/04/11 06:20:24;;;;;;;16.73;3.20;;;;;;;10.73;100.00;102693.78;5371960;26;20746;-75
2024/04/11 06:22:52;;;;;;;11.67;2.47;;;;;;;10.97;100.00;102741.50;5351233;26;20284;-76
2024/04/11 06:25:19;;;;;;;11.50;2.60;;;;;;;9.49;100.00;102535.34;5391405;26;20540;-76
2024/04/11 06:27:45;;;;;;;9.27;2.27;;;;;;;9.15;100.00;102487.75;5369373;26;20481;-76
2024/04/11 06:30:12;;;;;;;10.60;2.70;;;;;;;9.39;100.00;102516.66;5366912;26;20577;-76
2024/04/11 06:32:38;;;;;;;10.30;2.47;;;;;;;10.51;100.00;102703.16;5371981;26;20249;-76
2024/04/11 06:35:04;;;;;;;11.40;2.53;;;;;;;9.53;100.00;102526.00;5394621;26;20483;-76
2024/04/11 06:37:31;;;;;;;12.90;2.80;;;;;;;9.10;100.00;102457.91;5372276;26;20545;-75
2024/04/11 06:39:58;;;;;;;13.57;2.77;;;;;;;9.55;100.00;102533.91;5367130;26;20532;-75
2024/04/11 06:42:24;;;;;;;13.00;2.60;;;;;;;9.33;100.00;102490.47;5365199;26;20527;-75
2024/04/11 06:44:50;;;;;;;10.20;2.93;;;;;;;9.15;100.00;102509.19;5370821;26;20819;-76
2024/04/11 06:47:18;;;;;;;13.40;2.97;;;;;;;8.68;100.00;102433.47;5367692;26;20262;-75
2024/04/11 06:49:45;;;;;;;11.37;2.80;;;;;;;9.66;100.00;102573.88;5363514;26;20545;-76
2024/04/11 06:52:14;;;;;;;9.00;2.47;;;;;;;9.39;100.00;102513.13;5390535;26;20535;-76
2024/04/11 06:54:46;;;;;;;10.20;2.40;;;;;;;10.90;100.00;102804.84;5372501;26;20484;-75
2024/04/11 06:57:14;;;;;;;12.97;3.00;;;;;;;9.17;100.00;102514.38;5367709;26;20484;-76
2024/04/11 06:59:40;;;;;;;9.33;2.70;;;;;;;8.87;100.00;102510.16;5369134;26;20836;-76
2024/04/11 07:02:07;;;;;;;10.30;2.67;;;;;;;9.43;100.00;102589.50;5369593;26;20489;-76
2024/04/11 07:04:33;;;;;;;12.23;3.30;;;;;;;10.19;100.00;102689.22;5373728;26;20339;-75
2024/04/11 07:07:00;;;;;;;10.47;2.70;;;;;;;9.48;100.00;102624.72;5369562;26;20897;-76
2024/04/11 07:09:37;;;;;;;12.23;2.90;;;;;;;8.74;100.00;102491.75;5402957;26;20473;-76
2024/04/11 07:12:10;;;;;;;12.93;3.30;;;;;;;9.35;100.00;102578.72;5369696;26;20531;-76
2024/04/11 07:14:38;;;;;;;12.43;3.33;;;;;;;9.02;100.00;102551.50;5371533;26;21008;-76
2024/04/11 07:17:11;;;;;;;12.27;2.93;;;;;;;10.26;100.00;102731.53;5366598;26;20477;-76
2024/04/11 07:19:38;;;;;;;14.87;3.40;;;;;;;9.43;100.00;102616.28;5368906;26;20850;-76
2024/04/11 07:22:08;;;;;;;12.70;4.47;;;;;;;9.68;100.00;102666.50;5367349;26;20544;-76
2024/04/11 07:24:35;;;;;;;9.97;3.40;;;;;;;10.40;100.00;102784.72;5398232;26;20472;-75
2024/04/11 07:27:03;;;;;;;14.33;3.70;;;;;;;10.05;100.00;102731.78;5371018;26;20541;-76
2024/04/11 07:29:29;;;;;;;12.07;3.73;;;;;;;8.81;100.00;102536.50;5368417;26;20554;-76
2024/04/11 07:31:55;;;;;;;15.90;4.53;;;;;;;9.09;100.00;102587.41;5370647;26;20603;-76
2024/04/11 07:34:25;;;;;;;16.37;4.47;;;;;;;9.62;100.00;102676.97;5392763;26;20486;-76
2024/04/11 07:36:51;;;;;;;11.20;3.70;;;;;;;9.76;100.00;102707.81;5367636;26;20472;-76
2024/04/11 07:39:17;;;;;;;15.77;4.80;;;;;;;10.86;100.00;102915.22;5372155;26;20861;-76
2024/04/11 07:41:46;;;;;;;12.43;4.87;;;;;;;10.66;100.00;102851.06;5371145;26;20629;-76
2024/04/11 07:44:17;;;;;;;10.27;3.97;;;;;;;10.69;100.00;102832.00;5366864;26;20477;-76
2024/04/11 07:46:43;;;;;;;12.20;4.70;;;;;;;9.85;100.00;102714.97;5370461;26;20477;-76
2024/04/11 07:49:09;;;;;;;16.10;5.00;;;;;;;10.15;100.00;102784.41;5371365;26;20464;-76
2024/04/11 07:51:36;;;;;;;15.47;4.00;;;;;;;11.34;100.00;102961.59;5400787;26;20542;-76
2024/04/11 07:54:04;;;;;;;16.07;5.10;;;;;;;10.18;100.00;102777.88;5396039;26;20990;-76
2024/04/11 07:56:30;;;;;;;12.20;4.77;;;;;;;11.30;100.00;102954.81;5402584;21;20496;-67
2024/04/11 07:58:56;;;;;;;16.93;4.93;;;;;;;11.29;100.00;102971.94;5386286;26;20476;-67
2024/04/11 08:01:30;;;;;;;12.97;4.97;;;;;;;11.29;100.00;102971.94;5354127;26;20477;-68
2024/04/11 08:03:57;;;;;;;13.93;5.30;;;;;;;11.29;100.00;102996.13;5356483;26;21068;-66
2024/04/11 08:06:22;;;;;;;13.17;5.23;;;;;;;11.18;100.00;103007.91;5352981;26;20556;-67
2024/04/11 08:08:48;;;;;;;11.43;4.60;;;;;;;11.30;100.00;103008.56;5360877;26;20468;-67
2024/04/11 08:11:15;;;;;;;18.40;5.80;;;;;;;10.73;100.00;102941.59;5352757;26;20246;-67
2024/04/11 08:13:43;;;;;;;13.57;5.97;;;;;;;11.32;100.00;103022.69;5353655;26;20472;-67
2024/04/11 08:16:10;;;;;;;13.43;4.60;;;;;;;11.49;100.00;103037.16;5357204;26;20500;-68
2024/04/11 08:18:37;;;;;;;13.43;4.70;;;;;;;11.14;100.00;102973.44;5355736;26;20473;-67
2024/04/11 08:21:07;;;;;;;11.73;4.80;;;;;;;11.48;100.00;103020.16;5355986;26;20476;-67
2024/04/11 08:23:36;;;;;;;12.67;4.70;;;;;;;10.91;100.00;102949.69;5354982;26;20465;-67
2024/04/11 08:26:01;;;;;;;10.87;5.13;;;;;;;11.51;100.00;103051.28;5357198;26;21081;-67
2024/04/11 08:28:27;;;;;;;16.97;5.40;;;;;;;11.51;100.00;103025.28;5363034;26;20469;-67
2024/04/11 08:30:53;;;;;;;11.20;4.90;;;;;;;11.63;100.00;103028.56;5355986;26;20452;-67
2024/04/11 08:33:21;;;;;;;12.70;5.10;;;;;;;11.56;100.00;103022.09;5350283;26;20936;-66
2024/04/11 08:35:47;;;;;;;11.53;5.17;;;;;;;11.65;100.00;103058.81;5342915;26;24187;-67
2024/04/11 08:38:15;;;;;;;11.60;5.20;;;;;;;11.82;100.00;103043.69;5352192;26;20527;-67
2024/04/11 08:40:44;;;;;;;12.20;5.30;;;;;;;11.83;100.00;103066.94;5356918;26;20492;-67
2024/04/11 08:43:15;;;;;;;10.73;5.40;;;;;;;11.95;100.00;103087.25;5355654;26;20507;-66
2024/04/11 08:45:42;;;;;;;12.60;4.83;;;;;;;11.99;100.00;103087.78;5360858;26;21014;-68
2024/04/11 08:48:08;;;;;;;11.90;5.43;;;;;;;12.03;100.00;103093.69;5359195;26;20481;-68
2024/04/11 08:50:34;;;;;;;15.33;6.00;;;;;;;11.96;100.00;103097.00;5347980;26;20468;-66
2024/04/11 08:53:00;;;;;;;13.70;5.20;;;;;;;11.30;100.00;102990.59;5354469;26;21013;-66
2024/04/11 08:55:26;;;;;;;17.13;5.57;;;;;;;12.03;100.00;103102.59;5352336;26;20246;-67
2024/04/11 08:57:55;;;;;;;12.43;5.97;;;;;;;11.99;100.00;103085.09;5352179;26;20480;-68
2024/04/11 09:00:24;;;;;;;11.33;5.70;;;;;;;11.94;100.00;103057.78;5352945;26;20946;-68
2024/04/11 09:02:51;;;;;;;11.87;5.27;;;;;;;12.05;100.00;103070.19;5355502;26;20472;-67
2024/04/11 09:05:17;;;;;;;13.00;5.87;;;;;;;11.79;100.00;103027.88;5358605;26;20561;-67
2024/04/11 09:07:45;;;;;;;11.00;5.60;;;;;;;12.16;100.00;103095.00;5360727;26;20472;-67
2024/04/11 09:10:12;;;;;;;9.80;5.20;;;;;;;12.25;100.00;103084.31;5362176;26;21120;-67
2024/04/11 09:12:42;;;;;;;10.80;5.33;;;;;;;12.25;100.00;103071.69;5358570;26;21042;-68
2024/04/11 09:15:11;;;;;;;10.90;4.80;;;;;;;12.46;100.00;103083.97;5378244;26;20982;-67
2024/04/11 09:17:40;;;;;;;11.07;5.43;;;;;;;12.57;100.00;103118.72;5357958;26;20491;-67
2024/04/11 09:20:12;;;;;;;13.67;5.33;;;;;;;12.59;100.00;103106.81;5348558;26;20479;-67
2024/04/11 09:22:47;;;;;;;13.30;5.37;;;;;;;12.17;100.00;103058.16;5351609;26;20484;-67
2024/04/11 09:25:13;;;;;;;14.27;6.37;;;;;;;12.60;100.00;103111.16;5351536;26;20469;-67
2024/04/11 09:27:42;;;;;;;10.77;5.20;;;;;;;12.28;100.00;103059.78;5355126;26;21723;-68
2024/04/11 09:30:08;;;;;;;11.30;4.93;;;;;;;12.59;100.00;103087.94;5353145;26;20530;-67
2024/04/11 09:32:39;;;;;;;12.70;5.47;;;;;;;12.47;100.00;103089.22;5350768;26;20880;-67
2024/04/11 09:35:05;;;;;;;12.83;5.90;;;;;;;12.82;100.00;103115.22;5333809;26;21074;-67
2024/04/11 09:37:35;;;;;;;13.30;5.03;;;;;;;12.71;100.00;103123.53;5353844;26;20601;-66
2024/04/11 09:40:11;;;;;;;14.43;5.60;;;;;;;12.50;100.00;103066.50;5357462;26;20473;-70
2024/04/11 09:42:40;;;;;;;12.90;6.10;;;;;;;12.60;100.00;103099.56;5360450;26;20620;-69
2024/04/11 09:45:11;;;;;;;13.20;6.03;;;;;;;12.83;100.00;103124.97;5351317;26;20559;-69
2024/04/11 09:47:38;;;;;;;13.70;5.50;;;;;;;12.73;100.00;103109.91;5353999;26;20538;-68
2024/04/11 09:50:09;;;;;;;10.80;5.60;;;;;;;12.87;100.00;103120.09;5353691;26;20564;-68
2024/04/11 09:52:41;;;;;;;11.03;5.97;;;;;;;12.86;100.00;103116.56;5351745;26;20468;-67
2024/04/11 09:55:14;;;;;;;10.57;5.43;;;;;;;12.85;100.00;103105.97;5375318;26;20476;-67
2024/04/11 09:57:46;;;;;;;10.27;5.87;;;;;;;13.21;100.00;103130.91;5356017;26;20490;-68
2024/04/11 10:02:56;;;;;;;8.77;5.10;;;;;;;13.26;100.00;103135.88;5351610;26;20511;-68
2024/04/11 10:05:25;;;;;;;13.83;4.70;;;;;;;13.09;100.00;103099.88;5357435;26;20840;-67
2024/04/11 10:07:58;;;;;;;12.67;5.07;;;;;;;13.36;100.00;103133.88;5355480;26;20378;-68
2024/04/11 10:10:27;;;;;;;9.83;4.90;;;;;;;13.28;100.00;103128.47;5346546;26;20492;-68
2024/04/11 10:12:58;;;;;;;10.20;5.73;;;;;;;13.25;100.00;103145.81;5355073;26;20564;-68
2024/04/11 10:15:29;;;;;;;17.07;6.00;;;;;;;13.05;100.00;103102.06;5354509;26;20477;-67
2024/04/11 10:18:08;;;;;;;10.57;5.07;;;;;;;13.35;100.00;103137.59;5352559;26;20986;-68
2024/04/11 10:20:59;;;;;;;9.30;5.30;;;;;;;13.14;100.00;103099.41;5345289;26;20539;-65
2024/04/11 10:23:25;;;;;;;15.47;5.63;;;;;;;13.17;100.00;103115.25;5356394;26;20550;-67
2024/04/11 10:25:51;;;;;;;10.07;5.57;;;;;;;13.17;100.00;103116.09;5354426;26;20532;-67
2024/04/11 10:28:18;;;;;;;10.07;5.50;;;;;;;13.29;100.00;103135.56;5356919;26;20480;-66
2024/04/11 10:30:50;;;;;;;11.13;6.30;;;;;;;13.29;100.00;103120.22;5352755;26;20663;-67
2024/04/11 10:33:29;;;;;;;10.90;6.17;;;;;;;13.25;100.00;103132.34;5357705;26;20492;-67
2024/04/11 10:35:56;;;;;;;17.57;7.40;;;;;;;13.37;100.00;103148.22;5370205;26;20527;-66
2024/04/11 10:38:27;;;;;;;13.50;7.40;;;;;;;13.42;100.00;103135.09;5378261;26;21252;-67
2024/04/11 10:40:53;;;;;;;10.43;5.97;;;;;;;13.32;100.00;103140.63;5362050;26;20476;-67
2024/04/11 10:43:24;;;;;;;10.37;6.63;;;;;;;13.23;100.00;103128.06;5363197;26;20521;-67
2024/04/11 10:45:56;;;;;;;11.17;6.70;;;;;;;13.26;100.00;103123.25;5362215;26;20534;-67
2024/04/11 10:48:24;;;;;;;11.27;6.83;;;;;;;13.49;100.00;103155.03;5351284;26;20488;-67
2024/04/11 10:50:49;;;;;;;13.10;6.37;;;;;;;13.49;100.00;103150.47;5365718;26;20580;-67
2024/04/11 10:53:20;;;;;;;10.07;5.80;;;;;;;13.48;100.00;103172.19;5356409;26;20471;-67
2024/04/11 10:55:46;;;;;;;10.10;6.10;;;;;;;13.51;100.00;103163.78;5355862;26;20359;-66
2024/04/11 10:58:22;;;;;;;10.53;6.63;;;;;;;13.21;100.00;103119.31;5341793;26;21179;-66
2024/04/11 11:03:46;;;;;;;9.73;6.50;;;;;;;13.63;100.00;103173.28;5359615;26;21005;-67
2024/04/11 11:06:26;;;;;;;11.10;6.50;;;;;;;13.63;100.00;103181.38;5357139;26;20472;-66
2024/04/11 11:08:59;;;;;;;12.33;6.63;;;;;;;13.53;100.00;103156.38;5355368;26;20605;-67
2024/04/11 11:11:26;;;;;;;11.77;6.77;;;;;;;13.56;100.00;103172.22;5383296;26;20476;-66
2024/04/11 11:13:54;;;;;;;10.00;6.53;;;;;;;13.62;100.00;103182.38;5351827;26;20960;-67
2024/04/11 11:16:22;;;;;;;11.17;6.57;;;;;;;13.65;100.00;103175.81;5337676;26;21251;-67
2024/04/11 11:18:47;;;;;;;11.87;6.53;;;;;;;13.22;100.00;103127.25;5352449;26;20488;-66
2024/04/11 11:21:16;;;;;;;11.10;5.83;;;;;;;13.66;100.00;103191.00;5353184;26;21173;-67
2024/04/11 11:23:45;;;;;;;8.57;5.50;;;;;;;13.22;100.00;103126.38;5355758;26;20238;-67